Terminal Aerodrome Forecast
Issued by NWS Cleveland, OH

Home | Current Version | Previous Version | Graphics & Text | Print | Product List | Glossary On
Versions: 1 2 3 4 5 6 7 8 9 10 11 12 13 14
278
FTUS41 KCLE 261724
TAFERI
TAF
KERI 261724Z 2618/2718 22007KT P6SM SCT035 BKN250
     FM262300 VRB03KT P6SM BKN250
     FM270800 18007KT P6SM BKN140
     FM271400 21006KT P6SM BKN100
     FM271600 25006KT P6SM BKN080=

USA.gov is the U.S. government's official web portal to all federal, state and local government web resources and services.